Apatity, Russia
Current Conditions -  °F | °C
As of 11:30 AM on Saturday 20 Dec 2014 (Local Time) from ULMM Reporting Station
Broken Clouds Broken Clouds  
Wind Chill:   Ceiling: 8000
Heat Index:   Visibility: 6mi
Dew Point:   Wind: 0mph
Humidity: 85%   Direction: NA
Pressure: 29.06"   Gusts: NA
Location:  67.57°N, 33.39°E
Report Text: ULMM 200830Z 00000MPS 9999 FEW030 BKN080 M15/M17 Q0984 NOSIG RMK QFE731 31690142
Loading
Personal Weather Stations






























Interactive Weather Map New forecast layout! Learn more

10-Day Weather Forecast

Advertisements
Track Severe Weather on mobile